テルアビブ / ベン・グリオン の空港の天気 - METARとTAF

ベン・グリオン国際空港(テルアビブ) ( LLBG / TLV ) - イスラエル ロード / テルアビブ
飛行場実況気象(Metar)
観測時間12/14 08:20 IST (12/14 06:20 UTC)
風向・風速不定 2m/s
視程10km以上
天気現象
なし
気温13℃
湿度67%
気圧1026hPa
METARLLBG 140620Z VRB03KT CAVOK 13/07 Q1026 NOSIG
過去の天気等 Google飛行場航空写真 Wunderground天気予報

過去48時間のMETAR

飛行場予報(TAF)
発表時間: 12/14 07:06 IST (12/14 05:06 UTC)
予報対象時間: 14日8時 IST ~ 15日8時 IST
風向・風速東 3m/s
視程10km以上
なし
14日9時 IST ~ 14日11時 IST に徐々に
風向・風速北北東 4m/s
14日19時 IST ~ 14日21時 IST に徐々に
風向・風速東 5m/s
15日4時 IST から 確率 40% で
風向・風速東 9m/s
TAF LLBG 140506Z 1406/1506 08005KT CAVOK
BECMG 1407/1409 02008KT
BECMG 1417/1419 10010KT
PROB40 1502/1506 10017KT TX21/1411Z TN13/1504Z